• Join FlightAware (Why Join?)
  • Login
  • US Flag 
01:04AM EDT


 

Airport Tracker/Info


-or-


 

Live Flight TrackerFlight Track Log ✈ GJS3707 ✈ 21-May-2013 ✈ KBOI - KORD

Flight Track Log - Related Links

Times and Time Zones

All times are in EDT time to prevent confusion due to time zone crossing. See the GJS3707 flight status page for this flight to view local times or setup timezone preferences in your user account.

Time Position Orientation Groundspeed Altitude Reporting Facility
EDT Latitude Longitude Course Direction KTS MPH feet Rate Location/Type
03:24PM 43.5467 -116.1606 65° Northeast 175 201 4,900  Level Salt Lake Center
03:25PM 43.5264 -116.0847 110° East 200 230 7,100 1,920 Climbing Salt Lake Center
03:26PM 43.5300 -115.9892 87° East 266 306 8,900 1,980 Climbing Salt Lake Center
03:27PM 43.6559 -115.5700 78° East  Level FlightAware Approximate
03:27PM 43.5497 -115.8742 77° East 292 336 11,200  Level Salt Lake Center
03:28PM 43.6754 -115.4043 83° East  Level FlightAware Approximate
03:28PM 43.5700 -115.7494 77° East 314 361 12,800  Level Salt Lake Center
03:29PM 43.6974 -115.2412 65° Northeast  Level FlightAware Approximate
03:29PM 43.5931 -115.6069 77° East 360 414 14,800  Level Salt Lake Center
03:30PM 43.6164 -115.4611 77° East 371 427 16,500 1,500 Climbing Salt Lake Center
03:31PM 43.6383 -115.3183 78° East 392 451 17,900 1,560 Climbing Salt Lake Center
03:32PM 43.6647 -115.1606 77° East 403 464 19,800 1,680 Climbing Salt Lake Center
03:33PM 43.6906 -114.9939 78° East 412 474 21,400 1,320 Climbing Salt Lake Center
03:34PM 43.7150 -114.8383 78° East 430 495 22,600 1,140 Climbing Salt Lake Center
03:35PM 43.7433 -114.6544 78° East 440 506 23,800 1,140 Climbing Salt Lake Center
03:36PM 43.7672 -114.4947 78° East 444 511 25,000 960 Climbing Salt Lake Center
03:37PM 43.7928 -114.3322 78° East 450 518 25,900 960 Climbing Salt Lake Center
03:38PM 43.8217 -114.1372 78° East 464 534 27,100 960 Climbing Salt Lake Center
03:39PM 43.8458 -113.9700 79° East 465 535 28,000 960 Climbing Salt Lake Center
03:40PM 43.8747 -113.7708 79° East 474 545 29,100 1,020 Climbing Salt Lake Center
03:41PM 43.8992 -113.6033 78° East 464 534 30,200 840 Climbing Salt Lake Center
03:42PM 43.9256 -113.4014 80° East 475 547 30,900 600 Climbing Salt Lake Center
03:43PM 43.9503 -113.2253 79° East 483 556 31,500 780 Climbing Salt Lake Center
03:44PM 43.9781 -113.0217 79° East 482 555 32,500 840 Climbing Salt Lake Center
03:45PM 44.0017 -112.8467 79° East 483 556 33,300 720 Climbing Salt Lake Center
03:46PM 44.0264 -112.6728 79° East 481 554 34,100 780 Climbing Salt Lake Center
03:47PM 44.0539 -112.4700 79° East 480 552 34,900 420 Climbing Salt Lake Center
03:48PM 44.0767 -112.2931 80° East 484 557 35,000  Climbing Salt Lake Center
03:49PM 44.0889 -112.0814 85° East 493 567 35,000  Level Salt Lake Center
03:50PM 44.0911 -111.9000 89° East 493 567 35,000  Level Salt Lake Center
03:51PM 44.0925 -111.6842 89° East 502 578 35,000  Level Salt Lake Center
03:52PM 44.0939 -111.4997 89° East 502 578 35,000  Level Salt Lake Center
03:53PM 44.0939 -111.2858 90° East 500 575 35,000  Level Salt Lake Center
03:55PM 44.0939 -111.1031 90° East 499 574 35,000  Level Salt Lake Center
03:56PM 44.0931 -110.8892 90° East 498 573 35,000  Level Salt Lake Center
03:57PM 44.0933 -110.7056 90° East 499 574 35,000  Level Salt Lake Center
03:58PM 44.0936 -110.5192 90° East 505 581 35,000  Level Salt Lake Center
03:59PM 44.0914 -110.3047 91° East 500 575 35,000  Level Salt Lake Center
04:00PM 44.0903 -110.1200 90° East 500 575 35,000  Level Salt Lake Center
04:01PM 44.0886 -109.9036 91° East 501 577 35,000  Level Salt Lake Center
04:02PM 44.0872 -109.7203 91° East 496 571 35,000  Level Salt Lake Center
04:03PM 44.0914 -109.5069 88° East 496 571 35,000  Level Salt Lake Center
04:04PM 44.0944 -109.3361 89° East 492 566 35,000  Level Salt Lake Center
04:05PM 44.0983 -109.1228 88° East 494 568 35,000  Level Salt Lake Center
04:06PM 44.1019 -108.9414 88° East 491 565 35,000  Level Salt Lake Center
04:07PM 44.1042 -108.7314 89° East 487 560 35,000  Level Salt Lake Center
04:08PM 44.1072 -108.5517 89° East 487 560 35,000  Level Salt Lake Center
04:09PM 44.1092 -108.3733 89° East 484 557 35,000  Level Salt Lake Center
04:10PM 44.1106 -108.1636 89° East 487 560 35,000  Level Salt Lake Center
04:11PM 44.1122 -107.9864 89° East 483 556 35,000  Level Salt Lake Center
04:12PM 44.1147 -107.7794 89° East 482 555 35,000  Level Salt Lake Center
04:13PM 44.1156 -107.6069 90° East 472 543 35,000  Level Salt Lake Center
04:14PM 44.1156 -107.4042 90° East 472 543 35,000  Level Salt Lake Center
04:15PM 44.1158 -107.2306 90° East 471 542 35,000  Level Salt Lake Center
04:16PM 44.1158 -107.0572 90° East 466 536 35,000  Level Denver Center
04:17PM 44.1158 -106.8508 90° East 468 539 35,000  Level Denver Center
04:18PM 44.1153 -106.6781 90° East 465 535 35,000  Level Denver Center
04:19PM 44.1147 -106.5058 90° East 464 534 35,000  Level Denver Center
04:20PM 44.1142 -106.3086 90° East 470 541 35,000  Level Salt Lake Center
04:21PM 44.1150 -106.1283 90° East 470 541 35,000  Level Salt Lake Center
04:22PM 44.1125 -105.9258 91° East 470 541 35,000  Level Denver Center
04:23PM 44.1092 -105.7544 91° East 466 536 35,000  Level Denver Center
04:24PM 44.1072 -105.5525 91° East 467 537 35,000  Level Denver Center
04:25PM 44.1036 -105.3797 92° East 465 535 35,000  Level Denver Center
04:26PM 44.1025 -105.2053 90° East 468 539 35,000  Level Denver Center
04:27PM 44.0983 -105.0050 92° East 465 535 35,000  Level Denver Center
04:28PM 44.0953 -104.8308 91° East 468 539 35,000  Level Denver Center
04:29PM 44.0906 -104.6289 92° East 467 537 35,000  Level Denver Center
04:30PM 44.0864 -104.4544 92° East 469 540 35,000  Level Denver Center
04:31PM 44.0831 -104.2800 91° East 471 542 35,000  Level Denver Center
04:32PM 44.0764 -104.0781 93° East 471 542 35,000  Level Denver Center
04:33PM 44.0717 -103.9039 92° East 471 542 35,000  Level Denver Center
04:35PM 44.0672 -103.7003 92° East 472 543 35,000  Level Denver Center
04:36PM 44.0614 -103.5250 93° East 475 547 35,000  Level Denver Center
04:37PM 44.0542 -103.3214 93° East 473 544 35,000  Level Denver Center
04:38PM 44.0497 -103.1478 92° East 470 541 35,000  Level Denver Center
04:39PM 44.0433 -102.9742 93° East 470 541 35,000  Level Denver Center
04:40PM 44.0364 -102.7747 93° East 472 543 35,000  Level Denver Center
04:41PM 44.0283 -102.5894 93° East 479 551 35,000  Level Denver Center
04:42PM 44.0206 -102.4042 93° East 480 552 35,000  Level Denver Center
04:43PM 44.0111 -102.2178 94° East 483 556 35,000  Level Denver Center
04:44PM 43.9997 -101.9947 94° East 484 557 35,000  Level Denver Center
04:45PM 43.9903 -101.8086 94° East 484 557 35,000  Level Denver Center
04:46PM 43.9853 -101.6269 92° East 478 550 35,000  Level Denver Center
04:47PM 43.9756 -101.4403 94° East 484 557 35,000  Level Minneapolis Center
04:48PM 43.9669 -101.2544 94° East 484 557 35,000  Level Minneapolis Center
04:49PM 43.9556 -101.0322 94° East 484 557 35,000  Level Minneapolis Center
04:50PM 43.9461 -100.8461 94° East 484 557 35,000  Level Minneapolis Center
04:51PM 43.9356 -100.6617 94° East 483 556 35,000  Level Minneapolis Center
04:52PM 43.9247 -100.4733 95° East 487 560 35,100  Climbing Minneapolis Center
04:53PM 43.9122 -100.2856 95° East 491 565 35,000 -60 Descending Minneapolis Center
04:54PM 43.8994 -100.0647 95° East 484 557 35,000  Level Minneapolis Center
04:55PM 43.8886 -99.8811 95° East 482 555 35,000  Level Minneapolis Center
04:56PM 43.8761 -99.6961 95° East 483 556 35,000  Level Minneapolis Center
04:57PM 43.8639 -99.5111 95° East 484 557 35,000  Level Minneapolis Center
04:58PM 43.8519 -99.3269 95° East 483 556 35,000  Level Minneapolis Center
04:59PM 43.8378 -99.1425 96° East 483 556 35,000  Level Minneapolis Center
05:00PM 43.8231 -98.9194 95° East 486 559 35,000  Level Minneapolis Center
05:01PM 43.8100 -98.7347 96° East 485 558 35,000  Level Minneapolis Center
05:02PM 43.7956 -98.5414 96° East 490 564 35,000  Level Minneapolis Center
05:03PM 43.7814 -98.3578 96° East 485 558 35,000  Level Minneapolis Center
05:05PM 43.7669 -98.1717 96° East 487 560 35,000  Level Minneapolis Center
05:06PM 43.7494 -97.9853 97° East 489 563 35,000  Level Minneapolis Center
05:07PM 43.7294 -97.7644 97° East 486 559 35,000  Level Minneapolis Center
05:08PM 43.7117 -97.5792 97° East 489 563 35,000  Level Minneapolis Center
05:09PM 43.6944 -97.3956 97° East 486 559 35,000  Level Minneapolis Center
05:10PM 43.6753 -97.2106 98° East 489 563 35,000  Level Minneapolis Center
05:11PM 43.6575 -97.0258 98° East 489 563 35,000  Level Minneapolis Center
05:12PM 43.6386 -96.8411 98° East 491 565 35,000  Level Minneapolis Center
05:13PM 43.6153 -96.6203 98° East 489 563 35,000  Level Minneapolis Center
05:14PM 43.5964 -96.4367 98° East 488 562 35,000  Level Minneapolis Center
05:15PM 43.5769 -96.2533 98° East 487 560 35,000  Level Minneapolis Center
05:16PM 43.5572 -96.0697 98° East 489 563 35,000  Level Minneapolis Center
05:17PM 43.5367 -95.8867 99° East 488 562 35,000  Level Minneapolis Center
05:18PM 43.5117 -95.6650 99° East 491 565 35,000  Level Minneapolis Center
05:19PM 43.4914 -95.4800 99° East 493 567 35,000  Level Minneapolis Center
05:20PM 43.4692 -95.2947 99° East 492 566 35,000  Level Minneapolis Center
05:21PM 43.4467 -95.1083 99° East 496 571 35,000  Level Minneapolis Center
05:22PM 43.4239 -94.9186 99° East 505 581 35,000  Level Minneapolis Center
05:23PM 43.4008 -94.7286 99° East 507 583 35,000  Level Minneapolis Center
05:24PM 43.3731 -94.5006 99° East 507 583 35,000  Level Minneapolis Center
05:25PM 43.3497 -94.3106 100° East 508 585 35,000  Level Minneapolis Center
05:26PM 43.3256 -94.1339 101° East 511 588 35,000  Level Minneapolis Center
05:27PM 43.3014 -93.9442 100° East 511 588 35,000  Level Minneapolis Center
05:28PM 43.2722 -93.7158 100° East 512 589 35,000  Level Minneapolis Center
05:29PM 43.2478 -93.5247 100° East 514 592 35,000  Level Minneapolis Center
05:30PM 43.2217 -93.3331 101° East 516 594 35,000  Level Minneapolis Center
05:31PM 43.1956 -93.1414 101° East 517 595 35,000  Level Minneapolis Center
05:32PM 43.1692 -92.9472 100° East 521 600 35,000  Level Minneapolis Center
05:33PM 43.1369 -92.7147 101° East 522 601 35,000  Level Minneapolis Center
05:34PM 43.1183 -92.6000 102° East 521 600 35,000 -480 Level Chicago Center
05:35PM 43.0911 -92.4039 101° East 527 606 34,300 -780 Descending Chicago Center
05:36PM 43.0808 -92.3267 100° East 525 604 33,900 -900 Descending Minneapolis Center
05:36PM 43.0631 -92.2064 101° East 533 613 33,400 -900 Descending Chicago Center
05:37PM 43.0350 -92.0081 101° East 535 616 32,500 -900 Descending Chicago Center
05:38PM 43.0064 -91.8106 101° East 531 611 31,600 -780 Descending Chicago Center
05:39PM 42.9767 -91.6114 101° East 530 610 31,000 -420 Descending Chicago Center
05:40PM 42.9664 -91.5336 100° East 525 604 31,000 -420 Level Minneapolis Center
05:41PM 42.9461 -91.3058 97° East 504 580 30,400 -780 Descending Minneapolis Center
05:41PM 42.9319 -91.2022 101° East 477 549 29,800 -900 Descending Chicago Center
05:42PM 42.9022 -91.0272 103° East 475 547 29,000 -540 Descending Chicago Center
05:43PM 42.8731 -90.8539 103° East 470 541 28,800 -840 Descending Chicago Center
05:44PM 42.8419 -90.6817 104° East 471 542 27,300 -1,680 Descending Chicago Center
05:45PM 42.8117 -90.5119 104° East 466 536 25,300 -1,620 Descending Chicago Center
05:46PM 42.7769 -90.3206 104° East 444 511 24,000 -660 Descending Chicago Center
05:47PM 42.7486 -90.1600 103° East 438 504 24,000 -240 Level Chicago Center
05:49PM 42.7186 -89.9925 104° East 454 522 23,600 -1,080 Descending Chicago Center
05:50PM 42.6892 -89.8244 103° East 441 507 21,800 -1,740 Descending Chicago Center
05:51PM 42.6622 -89.6678 103° East 428 493 20,100 -1,920 Descending Chicago Center
05:52PM 42.6289 -89.4889 104° East 421 484 17,900 -1,920 Descending Chicago Center
05:53PM 42.6014 -89.3397 104° East 412 474 16,200 -1,560 Descending Chicago Center
05:54PM 42.5736 -89.1950 105° East 403 464 14,700 -1,380 Descending Chicago Center
05:55PM 42.5428 -89.0586 107° East 384 442 13,400 -1,260 Descending Chicago Center
05:56PM 42.5047 -88.9283 112° Southeast 375 432 12,100 -1,200 Descending Chicago Center
05:57PM 42.4603 -88.7806 112° Southeast 365 420 11,000 -900 Descending Chicago Center
05:58PM 42.4247 -88.6614 112° Southeast 340 391 10,300 -840 Descending Chicago Center
05:59PM 42.3914 -88.5542 113° Southeast 313 360 9,300 -660 Descending Chicago Center
06:00PM 42.3597 -88.4489 112° Southeast 305 351 9,000 -540 Descending Chicago Center
06:01PM 42.3350 -88.3494 109° East 285 328 8,200 -1,020 Descending Chicago Center
06:02PM 42.2814 -88.2661 131° Southeast 257 296 7,000 -600 Descending Chicago Center
06:03PM 42.2311 -88.2078 139° Southeast 244 281 7,000 -600 Level Chicago Center
06:04PM 42.1794 -88.1483 140° Southeast 244 281 5,800 -1,260 Descending Chicago Center
06:05PM 42.1303 -88.0922 140° Southeast 237 273 4,400 -1,380 Descending Chicago Center